sensor_id;sensor_type;location;lat;lon;timestamp;pressure;altitude;pressure_sealevel;temperature;humidity
19526;BME280;9907;42.676;26.348;2024-01-30T00:01:51;100967.16;;;1.59;71.53
19526;BME280;9907;42.676;26.348;2024-01-30T00:04:16;100958.34;;;1.60;71.80
19526;BME280;9907;42.676;26.348;2024-01-30T00:06:46;100961.88;;;1.59;71.82
19526;BME280;9907;42.676;26.348;2024-01-30T00:09:11;100959.94;;;1.67;71.67
19526;BME280;9907;42.676;26.348;2024-01-30T00:11:37;100958.25;;;1.66;71.75
19526;BME280;9907;42.676;26.348;2024-01-30T00:14:04;100958.25;;;1.65;72.37
19526;BME280;9907;42.676;26.348;2024-01-30T00:16:29;100957.38;;;1.66;72.52
19526;BME280;9907;42.676;26.348;2024-01-30T00:18:55;100966.81;;;1.74;71.49
19526;BME280;9907;42.676;26.348;2024-01-30T00:21:21;100963.13;;;1.81;71.76
19526;BME280;9907;42.676;26.348;2024-01-30T00:23:47;100990.50;;;1.76;71.85
19526;BME280;9907;42.676;26.348;2024-01-30T00:26:13;100974.69;;;1.76;71.70
19526;BME280;9907;42.676;26.348;2024-01-30T00:28:43;100965.09;;;1.73;71.85
19526;BME280;9907;42.676;26.348;2024-01-30T00:31:08;100981.78;;;1.72;72.21
19526;BME280;9907;42.676;26.348;2024-01-30T00:33:41;100985.16;;;1.79;71.53
19526;BME280;9907;42.676;26.348;2024-01-30T00:36:08;100985.84;;;1.87;71.66
19526;BME280;9907;42.676;26.348;2024-01-30T00:38:47;100998.06;;;1.89;71.93
19526;BME280;9907;42.676;26.348;2024-01-30T00:41:13;100998.06;;;1.89;71.89
19526;BME280;9907;42.676;26.348;2024-01-30T00:43:38;101003.34;;;1.89;71.83
19526;BME280;9907;42.676;26.348;2024-01-30T00:46:04;101005.34;;;1.78;72.40
19526;BME280;9907;42.676;26.348;2024-01-30T00:48:29;100994.75;;;1.81;71.90
19526;BME280;9907;42.676;26.348;2024-01-30T00:50:55;100992.81;;;1.89;72.34
19526;BME280;9907;42.676;26.348;2024-01-30T00:53:20;100996.28;;;1.91;72.12
19526;BME280;9907;42.676;26.348;2024-01-30T00:55:46;100988.41;;;1.90;72.27
19526;BME280;9907;42.676;26.348;2024-01-30T00:58:11;100985.94;;;1.82;72.01
19526;BME280;9907;42.676;26.348;2024-01-30T01:00:37;100983.31;;;1.82;72.32
19526;BME280;9907;42.676;26.348;2024-01-30T01:03:02;100985.13;;;1.80;72.50
19526;BME280;9907;42.676;26.348;2024-01-30T01:05:28;100987.69;;;1.83;72.56
19526;BME280;9907;42.676;26.348;2024-01-30T01:07:53;100990.22;;;1.88;72.24
19526;BME280;9907;42.676;26.348;2024-01-30T01:10:19;100995.41;;;1.91;72.18
19526;BME280;9907;42.676;26.348;2024-01-30T01:12:45;100992.59;;;1.99;71.30
19526;BME280;9907;42.676;26.348;2024-01-30T01:15:11;101001.38;;;1.99;71.07
19526;BME280;9907;42.676;26.348;2024-01-30T01:17:37;100997.06;;;1.95;70.67
19526;BME280;9907;42.676;26.348;2024-01-30T01:20:04;100996.28;;;1.91;70.31
19526;BME280;9907;42.676;26.348;2024-01-30T01:22:34;100977.94;;;1.87;69.99
19526;BME280;9907;42.676;26.348;2024-01-30T01:25:00;100995.44;;;1.89;69.27
19526;BME280;9907;42.676;26.348;2024-01-30T01:27:26;100983.09;;;1.91;69.66
19526;BME280;9907;42.676;26.348;2024-01-30T01:29:52;100978.56;;;1.96;68.56
19526;BME280;9907;42.676;26.348;2024-01-30T01:32:18;100982.00;;;2.00;68.02
19526;BME280;9907;42.676;26.348;2024-01-30T01:34:44;101001.38;;;1.99;68.05
19526;BME280;9907;42.676;26.348;2024-01-30T01:37:10;100998.75;;;1.99;68.10
19526;BME280;9907;42.676;26.348;2024-01-30T01:39:35;100990.84;;;1.98;68.46
19526;BME280;9907;42.676;26.348;2024-01-30T01:42:01;101007.63;;;1.95;69.33
19526;BME280;9907;42.676;26.348;2024-01-30T01:44:27;100988.38;;;1.91;69.02
19526;BME280;9907;42.676;26.348;2024-01-30T01:46:53;101015.47;;;1.96;67.22
19526;BME280;9907;42.676;26.348;2024-01-30T01:49:19;101008.34;;;2.00;67.03
19526;BME280;9907;42.676;26.348;2024-01-30T01:51:46;101012.03;;;1.93;67.68
19526;BME280;9907;42.676;26.348;2024-01-30T01:54:13;101002.44;;;1.90;67.74
19526;BME280;9907;42.676;26.348;2024-01-30T01:56:39;101000.59;;;1.95;67.57
19526;BME280;9907;42.676;26.348;2024-01-30T01:59:06;100994.53;;;1.90;67.14
19526;BME280;9907;42.676;26.348;2024-01-30T02:01:38;101003.25;;;1.92;66.44
19526;BME280;9907;42.676;26.348;2024-01-30T02:04:07;100994.53;;;1.90;66.99
19526;BME280;9907;42.676;26.348;2024-01-30T02:06:34;100994.69;;;1.84;67.54
19526;BME280;9907;42.676;26.348;2024-01-30T02:08:59;101011.41;;;1.83;67.55
19526;BME280;9907;42.676;26.348;2024-01-30T02:11:25;100978.88;;;1.84;67.53
19526;BME280;9907;42.676;26.348;2024-01-30T02:13:50;100976.91;;;1.92;66.73
19526;BME280;9907;42.676;26.348;2024-01-30T02:16:16;100982.25;;;1.89;66.66
19526;BME280;9907;42.676;26.348;2024-01-30T02:18:44;100979.78;;;1.83;67.14
19526;BME280;9907;42.676;26.348;2024-01-30T02:21:16;100974.53;;;1.82;67.19
19526;BME280;9907;42.676;26.348;2024-01-30T02:23:43;101009.75;;;1.79;67.35
19526;BME280;9907;42.676;26.348;2024-01-30T02:26:09;100971.81;;;1.85;67.12
19526;BME280;9907;42.676;26.348;2024-01-30T02:28:35;100982.25;;;1.89;67.03
19526;BME280;9907;42.676;26.348;2024-01-30T02:31:00;100985.75;;;1.90;67.37
19526;BME280;9907;42.676;26.348;2024-01-30T02:33:26;100970.06;;;1.85;67.90
19526;BME280;9907;42.676;26.348;2024-01-30T02:35:51;100977.00;;;1.89;67.41
19526;BME280;9907;42.676;26.348;2024-01-30T02:38:17;100947.03;;;1.93;67.29
19526;BME280;9907;42.676;26.348;2024-01-30T02:40:42;100960.44;;;1.84;67.77
19526;BME280;9907;42.676;26.348;2024-01-30T02:43:07;100963.91;;;1.85;67.83
19526;BME280;9907;42.676;26.348;2024-01-30T02:45:33;100961.09;;;1.92;66.38
19526;BME280;9907;42.676;26.348;2024-01-30T02:47:59;100953.34;;;1.86;67.82
19526;BME280;9907;42.676;26.348;2024-01-30T02:50:24;100956.00;;;1.85;66.78
19526;BME280;9907;42.676;26.348;2024-01-30T02:52:49;100945.47;;;1.85;66.93
19526;BME280;9907;42.676;26.348;2024-01-30T02:55:15;100962.19;;;1.84;67.53
19526;BME280;9907;42.676;26.348;2024-01-30T02:57:43;100965.63;;;1.87;67.09
19526;BME280;9907;42.676;26.348;2024-01-30T03:00:09;100954.25;;;1.85;67.13
19526;BME280;9907;42.676;26.348;2024-01-30T03:02:35;100955.97;;;1.86;67.15
19526;BME280;9907;42.676;26.348;2024-01-30T03:05:00;100951.50;;;1.90;66.85
19526;BME280;9907;42.676;26.348;2024-01-30T03:07:26;100947.03;;;1.93;67.05
19526;BME280;9907;42.676;26.348;2024-01-30T03:09:51;100955.78;;;1.94;67.18
19526;BME280;9907;42.676;26.348;2024-01-30T03:12:17;100942.78;;;1.88;67.39
19526;BME280;9907;42.676;26.348;2024-01-30T03:14:43;100936.56;;;1.90;67.33
19526;BME280;9907;42.676;26.348;2024-01-30T03:17:08;100939.22;;;1.89;67.09
19526;BME280;9907;42.676;26.348;2024-01-30T03:19:34;100944.63;;;1.84;67.21
19526;BME280;9907;42.676;26.348;2024-01-30T03:21:59;100934.91;;;1.85;68.09
19526;BME280;9907;42.676;26.348;2024-01-30T03:24:25;100939.28;;;1.86;68.56
19526;BME280;9907;42.676;26.348;2024-01-30T03:26:50;100939.38;;;1.83;67.77
19526;BME280;9907;42.676;26.348;2024-01-30T03:29:16;100944.56;;;1.86;67.25
19526;BME280;9907;42.676;26.348;2024-01-30T03:31:41;100928.66;;;1.90;67.57
19526;BME280;9907;42.676;26.348;2024-01-30T03:34:07;100928.72;;;1.87;68.66
19526;BME280;9907;42.676;26.348;2024-01-30T03:36:32;100934.88;;;1.88;67.63
19526;BME280;9907;42.676;26.348;2024-01-30T03:38:59;100933.94;;;1.90;67.72
19526;BME280;9907;42.676;26.348;2024-01-30T03:41:25;100926.00;;;1.90;67.56
19526;BME280;9907;42.676;26.348;2024-01-30T03:43:50;100906.59;;;1.94;67.60
19526;BME280;9907;42.676;26.348;2024-01-30T03:46:16;100917.03;;;1.98;67.69
19526;BME280;9907;42.676;26.348;2024-01-30T03:48:41;100920.56;;;1.96;68.07
19526;BME280;9907;42.676;26.348;2024-01-30T03:51:07;100926.88;;;1.91;67.78
19526;BME280;9907;42.676;26.348;2024-01-30T03:53:33;100929.47;;;1.92;68.70
19526;BME280;9907;42.676;26.348;2024-01-30T03:55:58;100947.09;;;1.90;67.89
19526;BME280;9907;42.676;26.348;2024-01-30T03:58:24;100923.13;;;2.00;67.52
19526;BME280;9907;42.676;26.348;2024-01-30T04:00:49;100926.63;;;2.00;66.57
19526;BME280;9907;42.676;26.348;2024-01-30T04:03:15;100937.97;;;2.04;66.96
19526;BME280;9907;42.676;26.348;2024-01-30T04:05:43;100943.38;;;1.99;67.30
19526;BME280;9907;42.676;26.348;2024-01-30T04:08:09;100951.22;;;2.02;67.01
19526;BME280;9907;42.676;26.348;2024-01-30T04:10:34;100941.66;;;1.98;66.96
19526;BME280;9907;42.676;26.348;2024-01-30T04:13:00;100953.16;;;1.94;66.84
19526;BME280;9907;42.676;26.348;2024-01-30T04:15:26;100969.94;;;1.90;67.84
19526;BME280;9907;42.676;26.348;2024-01-30T04:17:52;100969.06;;;1.91;67.33
19526;BME280;9907;42.676;26.348;2024-01-30T04:20:17;100966.38;;;1.92;67.99
19526;BME280;9907;42.676;26.348;2024-01-30T04:22:44;100968.03;;;1.96;67.50
19526;BME280;9907;42.676;26.348;2024-01-30T04:25:10;100981.22;;;1.96;67.53
19526;BME280;9907;42.676;26.348;2024-01-30T04:27:35;100992.81;;;1.89;67.56
19526;BME280;9907;42.676;26.348;2024-01-30T04:30:02;100976.91;;;1.92;67.81
19526;BME280;9907;42.676;26.348;2024-01-30T04:32:27;100976.00;;;1.95;67.58
19526;BME280;9907;42.676;26.348;2024-01-30T04:34:53;100973.63;;;1.84;68.41
19526;BME280;9907;42.676;26.348;2024-01-30T04:37:18;100951.75;;;1.81;68.95
19526;BME280;9907;42.676;26.348;2024-01-30T04:39:44;100947.38;;;1.78;67.99
19526;BME280;9907;42.676;26.348;2024-01-30T04:42:09;100939.63;;;1.72;68.27
19526;BME280;9907;42.676;26.348;2024-01-30T04:44:35;100935.25;;;1.73;68.09
19526;BME280;9907;42.676;26.348;2024-01-30T04:47:00;100931.72;;;1.72;68.84
19526;BME280;9907;42.676;26.348;2024-01-30T04:49:32;100928.81;;;1.84;68.17
19526;BME280;9907;42.676;26.348;2024-01-30T04:51:58;100934.28;;;1.75;68.98
19526;BME280;9907;42.676;26.348;2024-01-30T04:54:24;100936.94;;;1.74;68.91
19526;BME280;9907;42.676;26.348;2024-01-30T04:56:49;100937.91;;;1.71;68.88
19526;BME280;9907;42.676;26.348;2024-01-30T04:59:14;100944.31;;;1.60;69.90
19526;BME280;9907;42.676;26.348;2024-01-30T05:01:40;100941.50;;;1.67;69.23
19526;BME280;9907;42.676;26.348;2024-01-30T05:04:09;100941.56;;;1.64;69.17
19526;BME280;9907;42.676;26.348;2024-01-30T05:06:34;100942.34;;;1.69;69.36
19526;BME280;9907;42.676;26.348;2024-01-30T05:09:00;100937.16;;;1.66;69.24
19526;BME280;9907;42.676;26.348;2024-01-30T05:11:25;100932.41;;;1.80;69.21
19526;BME280;9907;42.676;26.348;2024-01-30T05:13:50;100938.66;;;1.76;69.49
19526;BME280;9907;42.676;26.348;2024-01-30T05:16:16;100929.88;;;1.76;69.98
19526;BME280;9907;42.676;26.348;2024-01-30T05:18:41;100938.88;;;1.67;69.47
19526;BME280;9907;42.676;26.348;2024-01-30T05:21:07;100951.22;;;1.65;69.78
19526;BME280;9907;42.676;26.348;2024-01-30T05:23:32;100937.16;;;1.66;69.80
19526;BME280;9907;42.676;26.348;2024-01-30T05:25:57;100942.44;;;1.66;70.62
19526;BME280;9907;42.676;26.348;2024-01-30T05:28:26;100935.50;;;1.61;69.98
19526;BME280;9907;42.676;26.348;2024-01-30T05:30:51;100955.53;;;1.68;70.28
19526;BME280;9907;42.676;26.348;2024-01-30T05:33:17;100948.59;;;1.64;70.68
19526;BME280;9907;42.676;26.348;2024-01-30T05:35:42;100937.28;;;1.60;71.12
19526;BME280;9907;42.676;26.348;2024-01-30T05:38:08;100946.81;;;1.66;70.48
19526;BME280;9907;42.676;26.348;2024-01-30T05:40:33;100950.28;;;1.68;70.38
19526;BME280;9907;42.676;26.348;2024-01-30T05:42:59;100953.09;;;1.60;71.07
19526;BME280;9907;42.676;26.348;2024-01-30T05:45:26;100970.47;;;1.69;70.72
19526;BME280;9907;42.676;26.348;2024-01-30T05:47:52;100963.53;;;1.63;71.33
19526;BME280;9907;42.676;26.348;2024-01-30T05:50:18;100970.56;;;1.64;70.54
19526;BME280;9907;42.676;26.348;2024-01-30T05:52:44;100980.47;;;1.53;70.93
19526;BME280;9907;42.676;26.348;2024-01-30T05:58:36;100974.13;;;1.62;71.58
19526;BME280;9907;42.676;26.348;2024-01-30T06:01:06;100984.44;;;1.72;71.00
19526;BME280;9907;42.676;26.348;2024-01-30T06:03:32;100985.38;;;1.70;70.69
19526;BME280;9907;42.676;26.348;2024-01-30T06:05:57;100990.50;;;1.76;70.50
19526;BME280;9907;42.676;26.348;2024-01-30T06:08:47;100989.44;;;1.83;70.87
19526;BME280;9907;42.676;26.348;2024-01-30T06:11:51;101014.22;;;1.74;71.10
19526;BME280;9907;42.676;26.348;2024-01-30T06:14:16;101015.03;;;1.78;71.44
19526;BME280;9907;42.676;26.348;2024-01-30T06:23:26;101002.88;;;1.72;70.97
19526;BME280;9907;42.676;26.348;2024-01-30T06:25:51;101002.72;;;1.78;71.04
19526;BME280;9907;42.676;26.348;2024-01-30T06:28:17;101013.38;;;1.74;70.92
19526;BME280;9907;42.676;26.348;2024-01-30T06:30:42;100993.81;;;1.84;71.32
19526;BME280;9907;42.676;26.348;2024-01-30T06:33:12;101006.06;;;1.85;70.70
19526;BME280;9907;42.676;26.348;2024-01-30T06:35:37;101003.44;;;1.85;71.17
19526;BME280;9907;42.676;26.348;2024-01-30T06:38:05;101020.91;;;1.90;71.23
19526;BME280;9907;42.676;26.348;2024-01-30T06:40:30;101002.44;;;1.90;70.85
19526;BME280;9907;42.676;26.348;2024-01-30T06:42:56;101004.06;;;1.96;70.84
19526;BME280;9907;42.676;26.348;2024-01-30T06:45:21;101011.00;;;2.00;71.23
19526;BME280;9907;42.676;26.348;2024-01-30T06:47:47;101011.66;;;2.10;70.76
19526;BME280;9907;42.676;26.348;2024-01-30T06:50:12;101017.38;;;1.91;71.13
19526;BME280;9907;42.676;26.348;2024-01-30T06:52:38;101016.69;;;1.83;71.58
19526;BME280;9907;42.676;26.348;2024-01-30T06:55:04;101018.28;;;1.89;70.98
19526;BME280;9907;42.676;26.348;2024-01-30T06:57:29;101017.31;;;1.93;72.24
19526;BME280;9907;42.676;26.348;2024-01-30T06:59:56;101028.22;;;2.15;72.23
19526;BME280;9907;42.676;26.348;2024-01-30T07:02:21;101022.91;;;2.18;71.94
19526;BME280;9907;42.676;26.348;2024-01-30T07:04:47;101023.00;;;2.13;70.41
19526;BME280;9907;42.676;26.348;2024-01-30T07:07:12;101013.16;;;2.20;69.70
19526;BME280;9907;42.676;26.348;2024-01-30T07:09:40;101013.25;;;2.17;70.77
19526;BME280;9907;42.676;26.348;2024-01-30T07:12:06;101006.16;;;2.19;70.71
19526;BME280;9907;42.676;26.348;2024-01-30T07:14:33;101008.50;;;2.29;70.67
19526;BME280;9907;42.676;26.348;2024-01-30T07:16:59;101026.88;;;2.34;69.70
19526;BME280;9907;42.676;26.348;2024-01-30T07:19:24;101006.53;;;2.39;70.44
19526;BME280;9907;42.676;26.348;2024-01-30T07:21:50;101011.09;;;2.32;69.32
19526;BME280;9907;42.676;26.348;2024-01-30T07:24:15;101013.66;;;2.35;69.88
19526;BME280;9907;42.676;26.348;2024-01-30T07:26:41;101029.78;;;2.23;69.06
19526;BME280;9907;42.676;26.348;2024-01-30T07:29:06;101035.91;;;2.25;68.46
19526;BME280;9907;42.676;26.348;2024-01-30T07:31:36;101009.44;;;2.28;68.57
19526;BME280;9907;42.676;26.348;2024-01-30T07:34:03;101023.34;;;2.35;69.01
19526;BME280;9907;42.676;26.348;2024-01-30T07:36:28;101010.22;;;2.32;69.60
19526;BME280;9907;42.676;26.348;2024-01-30T07:38:54;101009.78;;;2.49;70.01
19526;BME280;9907;42.676;26.348;2024-01-30T07:41:20;101010.66;;;2.49;70.10
19526;BME280;9907;42.676;26.348;2024-01-30T07:43:45;101019.34;;;2.54;69.24
19526;BME280;9907;42.676;26.348;2024-01-30T07:46:11;100994.66;;;2.55;69.29
19526;BME280;9907;42.676;26.348;2024-01-30T07:48:36;100997.47;;;2.49;68.74
19526;BME280;9907;42.676;26.348;2024-01-30T07:51:02;100998.66;;;2.71;68.78
19526;BME280;9907;42.676;26.348;2024-01-30T07:53:29;100998.06;;;2.60;68.88
19526;BME280;9907;42.676;26.348;2024-01-30T07:55:54;101002.16;;;2.38;68.76
19526;BME280;9907;42.676;26.348;2024-01-30T07:58:20;101006.16;;;2.54;68.76
19526;BME280;9907;42.676;26.348;2024-01-30T08:00:45;100994.63;;;2.58;68.58
19526;BME280;9907;42.676;26.348;2024-01-30T08:03:11;100997.66;;;2.75;68.06
19526;BME280;9907;42.676;26.348;2024-01-30T08:05:36;101008.69;;;2.57;67.16
19526;BME280;9907;42.676;26.348;2024-01-30T08:08:02;101008.69;;;2.57;67.59
19526;BME280;9907;42.676;26.348;2024-01-30T08:10:27;101019.09;;;2.63;68.04
19526;BME280;9907;42.676;26.348;2024-01-30T08:12:53;101022.09;;;2.82;68.37
19526;BME280;9907;42.676;26.348;2024-01-30T08:15:20;101023.88;;;2.81;66.78
19526;BME280;9907;42.676;26.348;2024-01-30T08:17:45;101004.50;;;2.82;67.02
19526;BME280;9907;42.676;26.348;2024-01-30T08:20:11;101003.53;;;2.85;66.72
19526;BME280;9907;42.676;26.348;2024-01-30T08:22:40;101029.44;;;2.71;65.72
19526;BME280;9907;42.676;26.348;2024-01-30T08:25:06;101018.06;;;2.69;65.79
19526;BME280;9907;42.676;26.348;2024-01-30T08:27:32;101032.56;;;2.53;66.35
19526;BME280;9907;42.676;26.348;2024-01-30T08:30:27;101010.97;;;2.71;66.47
19526;BME280;9907;42.676;26.348;2024-01-30T08:32:56;101021.00;;;2.58;66.14
19526;BME280;9907;42.676;26.348;2024-01-30T08:35:21;100998.44;;;2.79;66.42
19526;BME280;9907;42.676;26.348;2024-01-30T08:37:46;101004.78;;;2.73;65.88
19526;BME280;9907;42.676;26.348;2024-01-30T08:40:12;101007.59;;;2.66;65.68
19526;BME280;9907;42.676;26.348;2024-01-30T08:42:37;101005.38;;;2.83;65.76
19526;BME280;9907;42.676;26.348;2024-01-30T08:45:13;101014.25;;;2.80;65.39
19526;BME280;9907;42.676;26.348;2024-01-30T08:53:42;101002.44;;;2.61;65.72
19526;BME280;9907;42.676;26.348;2024-01-30T08:56:08;101000.22;;;2.78;65.48
19526;BME280;9907;42.676;26.348;2024-01-30T08:58:33;100996.91;;;2.70;65.62
19526;BME280;9907;42.676;26.348;2024-01-30T09:01:19;100988.06;;;2.73;64.68
19526;BME280;9907;42.676;26.348;2024-01-30T09:07:25;100984.63;;;3.02;64.66
19526;BME280;9907;42.676;26.348;2024-01-30T09:09:52;100983.28;;;2.85;64.71
19526;BME280;9907;42.676;26.348;2024-01-30T09:12:17;101013.88;;;2.94;63.86
19526;BME280;9907;42.676;26.348;2024-01-30T09:17:47;101012.09;;;2.94;63.89
19526;BME280;9907;42.676;26.348;2024-01-30T09:20:31;101006.63;;;3.01;63.68
19526;BME280;9907;42.676;26.348;2024-01-30T09:23:20;101009.25;;;3.02;64.13
19526;BME280;9907;42.676;26.348;2024-01-30T09:26:06;101011.19;;;2.96;63.84
19526;BME280;9907;42.676;26.348;2024-01-30T09:28:39;100999.69;;;2.98;63.92
19526;BME280;9907;42.676;26.348;2024-01-30T09:31:12;101000.53;;;2.99;64.48
19526;BME280;9907;42.676;26.348;2024-01-30T09:33:38;101000.06;;;2.84;64.53
19526;BME280;9907;42.676;26.348;2024-01-30T09:36:05;100993.63;;;2.94;64.69
19526;BME280;9907;42.676;26.348;2024-01-30T09:38:31;100992.47;;;3.03;64.84
19526;BME280;9907;42.676;26.348;2024-01-30T09:41:01;100991.63;;;3.03;64.52
19526;BME280;9907;42.676;26.348;2024-01-30T09:43:32;101003.75;;;3.10;64.79
19526;BME280;9907;42.676;26.348;2024-01-30T09:46:13;101005.22;;;3.20;65.02
19526;BME280;9907;42.676;26.348;2024-01-30T09:48:41;101005.03;;;3.26;65.14
19526;BME280;9907;42.676;26.348;2024-01-30T09:51:09;101013.88;;;3.25;64.95
19526;BME280;9907;42.676;26.348;2024-01-30T09:53:34;101016.56;;;3.23;63.89
19526;BME280;9907;42.676;26.348;2024-01-30T09:56:01;101006.19;;;3.17;63.72
19526;BME280;9907;42.676;26.348;2024-01-30T09:58:30;100994.66;;;3.20;63.36
19526;BME280;9907;42.676;26.348;2024-01-30T10:00:55;100990.78;;;3.31;63.55
19526;BME280;9907;42.676;26.348;2024-01-30T10:03:22;100983.03;;;3.25;62.85
19526;BME280;9907;42.676;26.348;2024-01-30T10:09:46;100984.50;;;3.35;61.66
19526;BME280;9907;42.676;26.348;2024-01-30T10:12:13;100980.16;;;3.33;62.76
19526;BME280;9907;42.676;26.348;2024-01-30T10:14:58;100982.97;;;3.28;63.34
19526;BME280;9907;42.676;26.348;2024-01-30T10:17:25;100977.38;;;3.39;62.59
19526;BME280;9907;42.676;26.348;2024-01-30T10:19:52;100983.44;;;3.41;62.69
19526;BME280;9907;42.676;26.348;2024-01-30T10:22:19;100964.63;;;3.52;63.20
19526;BME280;9907;42.676;26.348;2024-01-30T10:24:45;100967.25;;;3.53;62.93
19526;BME280;9907;42.676;26.348;2024-01-30T10:27:12;100974.31;;;3.51;62.28
19526;BME280;9907;42.676;26.348;2024-01-30T10:29:37;100968.22;;;3.51;61.96
19526;BME280;9907;42.676;26.348;2024-01-30T10:32:05;100974.16;;;3.57;62.01
19526;BME280;9907;42.676;26.348;2024-01-30T10:34:31;100980.22;;;3.61;61.73
19526;BME280;9907;42.676;26.348;2024-01-30T10:37:11;100961.53;;;3.37;62.24
19526;BME280;9907;42.676;26.348;2024-01-30T10:39:44;100962.06;;;3.50;62.12
19526;BME280;9907;42.676;26.348;2024-01-30T10:42:13;100959.22;;;3.56;62.31
19526;BME280;9907;42.676;26.348;2024-01-30T10:45:10;100962.03;;;3.78;61.99
19526;BME280;9907;42.676;26.348;2024-01-30T10:47:48;100955.13;;;3.46;62.05
19526;BME280;9907;42.676;26.348;2024-01-30T10:50:14;100963.31;;;3.37;61.81
19526;BME280;9907;42.676;26.348;2024-01-30T10:52:40;100960.66;;;3.66;61.58
19526;BME280;9907;42.676;26.348;2024-01-30T10:55:07;100960.91;;;3.86;60.97
19526;BME280;9907;42.676;26.348;2024-01-30T10:57:37;100959.94;;;4.15;61.06
19526;BME280;9907;42.676;26.348;2024-01-30T11:00:06;100960.91;;;3.86;59.69
19526;BME280;9907;42.676;26.348;2024-01-30T11:02:39;100948.56;;;4.13;60.46
19526;BME280;9907;42.676;26.348;2024-01-30T11:05:06;100939.66;;;3.89;59.64
19526;BME280;9907;42.676;26.348;2024-01-30T11:07:31;100931.09;;;3.81;60.54
19526;BME280;9907;42.676;26.348;2024-01-30T11:12:24;100920.28;;;4.15;59.70
19526;BME280;9907;42.676;26.348;2024-01-30T11:15:01;100935.69;;;4.03;59.25
19526;BME280;9907;42.676;26.348;2024-01-30T11:17:28;100938.50;;;3.98;60.08
19526;BME280;9907;42.676;26.348;2024-01-30T11:19:53;100919.25;;;3.93;59.39
19526;BME280;9907;42.676;26.348;2024-01-30T11:22:20;100945.03;;;3.59;59.67
19526;BME280;9907;42.676;26.348;2024-01-30T11:24:47;100924.50;;;3.95;59.54
19526;BME280;9907;42.676;26.348;2024-01-30T11:27:12;100935.50;;;4.09;59.01
19526;BME280;9907;42.676;26.348;2024-01-30T11:29:40;100927.69;;;3.50;60.28
19526;BME280;9907;42.676;26.348;2024-01-30T11:32:05;100915.81;;;3.91;59.76
19526;BME280;9907;42.676;26.348;2024-01-30T11:34:32;100910.09;;;4.03;58.80
19526;BME280;9907;42.676;26.348;2024-01-30T11:37:03;100899.56;;;4.28;59.49
19526;BME280;9907;42.676;26.348;2024-01-30T11:39:32;100924.47;;;3.68;59.88
19526;BME280;9907;42.676;26.348;2024-01-30T11:41:58;100904.53;;;4.11;59.31
19526;BME280;9907;42.676;26.348;2024-01-30T11:44:24;100921.03;;;4.19;58.74
19526;BME280;9907;42.676;26.348;2024-01-30T11:46:52;100912.81;;;4.02;58.96
19526;BME280;9907;42.676;26.348;2024-01-30T11:49:17;100904.81;;;3.77;58.65
19526;BME280;9907;42.676;26.348;2024-01-30T11:51:45;100899.09;;;4.15;58.01
19526;BME280;9907;42.676;26.348;2024-01-30T11:54:11;100902.09;;;4.06;58.32
19526;BME280;9907;42.676;26.348;2024-01-30T11:56:37;100903.84;;;4.06;57.66
19526;BME280;9907;42.676;26.348;2024-01-30T11:59:04;100905.03;;;4.22;58.06
19526;BME280;9907;42.676;26.348;2024-01-30T12:01:30;100889.94;;;4.25;58.42
19526;BME280;9907;42.676;26.348;2024-01-30T12:04:00;100894.50;;;4.70;58.51
19526;BME280;9907;42.676;26.348;2024-01-30T12:06:26;100877.91;;;4.89;57.88
19526;BME280;9907;42.676;26.348;2024-01-30T12:08:59;100892.84;;;4.67;57.16
19526;BME280;9907;42.676;26.348;2024-01-30T12:11:26;100890.81;;;4.00;57.94
19526;BME280;9907;42.676;26.348;2024-01-30T12:13:52;100905.66;;;4.30;58.52
19526;BME280;9907;42.676;26.348;2024-01-30T12:16:18;100888.38;;;4.20;58.38
19526;BME280;9907;42.676;26.348;2024-01-30T12:18:44;100898.88;;;4.21;58.16
19526;BME280;9907;42.676;26.348;2024-01-30T12:21:09;100900.84;;;4.16;57.75
19526;BME280;9907;42.676;26.348;2024-01-30T12:23:35;100884.22;;;4.13;58.08
19526;BME280;9907;42.676;26.348;2024-01-30T12:26:01;100892.09;;;4.14;56.99
19526;BME280;9907;42.676;26.348;2024-01-30T12:28:29;100885.19;;;4.35;57.45
19526;BME280;9907;42.676;26.348;2024-01-30T12:31:04;100881.41;;;4.42;57.25
19526;BME280;9907;42.676;26.348;2024-01-30T12:33:31;100885.81;;;4.43;57.40
19526;BME280;9907;42.676;26.348;2024-01-30T12:35:57;100874.94;;;4.51;58.21
19526;BME280;9907;42.676;26.348;2024-01-30T12:38:24;100877.63;;;4.49;58.37
19526;BME280;9907;42.676;26.348;2024-01-30T12:40:54;100884.63;;;4.25;57.18
19526;BME280;9907;42.676;26.348;2024-01-30T12:43:21;100874.47;;;4.39;58.05
19526;BME280;9907;42.676;26.348;2024-01-30T12:45:47;100881.41;;;4.67;57.30
19526;BME280;9907;42.676;26.348;2024-01-30T12:48:12;100878.00;;;4.63;58.28
19526;BME280;9907;42.676;26.348;2024-01-30T12:50:41;100879.03;;;4.10;57.33
19526;BME280;9907;42.676;26.348;2024-01-30T12:53:06;100881.91;;;4.28;57.35
19526;BME280;9907;42.676;26.348;2024-01-30T12:55:32;100884.94;;;4.43;57.22
19526;BME280;9907;42.676;26.348;2024-01-30T12:57:58;100869.97;;;4.41;57.79
19526;BME280;9907;42.676;26.348;2024-01-30T13:00:23;100872.72;;;4.38;56.60
19526;BME280;9907;42.676;26.348;2024-01-30T13:02:48;100871.25;;;4.55;57.61
19526;BME280;9907;42.676;26.348;2024-01-30T13:05:14;100863.03;;;4.62;56.97
19526;BME280;9907;42.676;26.348;2024-01-30T13:07:40;100885.19;;;4.35;56.62
19526;BME280;9907;42.676;26.348;2024-01-30T13:10:05;100877.44;;;4.04;56.79
19526;BME280;9907;42.676;26.348;2024-01-30T13:12:31;100876.06;;;4.19;56.80
19526;BME280;9907;42.676;26.348;2024-01-30T13:15:01;100868.75;;;4.25;57.46
19526;BME280;9907;42.676;26.348;2024-01-30T13:17:27;100884.00;;;4.43;57.29
19526;BME280;9907;42.676;26.348;2024-01-30T13:19:53;100886.59;;;4.45;57.35
19526;BME280;9907;42.676;26.348;2024-01-30T13:22:19;100875.25;;;4.17;57.19
19526;BME280;9907;42.676;26.348;2024-01-30T13:24:47;100879.78;;;4.13;57.30
19526;BME280;9907;42.676;26.348;2024-01-30T13:27:12;100869.03;;;4.18;58.54
19526;BME280;9907;42.676;26.348;2024-01-30T13:29:37;100871.25;;;4.30;57.31